createdAt,value
2022-12-23T00:00:30.717Z,2.73
2022-12-23T00:03:19.209Z,2.74
2022-12-23T00:05:47.529Z,2.75
2022-12-23T00:08:15.891Z,2.78
2022-12-23T00:10:44.807Z,2.80
2022-12-23T00:13:31.663Z,2.82
2022-12-23T00:16:07.210Z,2.86
2022-12-23T00:18:35.957Z,2.88
2022-12-23T00:21:09.140Z,2.88
2022-12-23T00:23:40.189Z,2.89
2022-12-23T00:26:14.141Z,2.90
2022-12-23T00:28:42.460Z,2.85
2022-12-23T00:31:11.711Z,2.79
2022-12-23T00:33:43.729Z,2.75
2022-12-23T00:36:13.158Z,2.75
2022-12-23T00:38:59.881Z,2.73
2022-12-23T00:41:47.025Z,2.70
2022-12-23T00:44:15.840Z,2.67
2022-12-23T00:46:44.419Z,2.66
2022-12-23T00:49:32.664Z,2.66
2022-12-23T00:52:00.969Z,2.67
2022-12-23T00:54:29.380Z,2.67
2022-12-23T00:56:58.007Z,2.67
2022-12-23T00:59:26.014Z,2.66
2022-12-23T01:02:12.803Z,2.64
2022-12-23T01:04:59.404Z,2.63
2022-12-23T01:07:27.544Z,2.64
2022-12-23T01:09:55.797Z,2.66
2022-12-23T01:12:23.882Z,2.69
2022-12-23T01:14:52.061Z,2.72
2022-12-23T01:17:20.400Z,2.73
2022-12-23T01:19:48.589Z,2.76
2022-12-23T01:22:16.801Z,2.78
2022-12-23T01:24:44.894Z,2.81
2022-12-23T01:27:13.136Z,2.82
2022-12-23T01:29:41.234Z,2.79
2022-12-23T01:32:09.379Z,2.76
2022-12-23T01:34:37.887Z,2.70
2022-12-23T01:37:06.427Z,2.64
2022-12-23T01:39:34.548Z,2.59
2022-12-23T01:42:21.358Z,2.54
2022-12-23T01:45:00.920Z,2.47
2022-12-23T01:47:54.255Z,2.42
2022-12-23T01:50:38.728Z,2.37
2022-12-23T01:53:13.701Z,2.34
2022-12-23T01:56:05.799Z,2.30
2022-12-23T01:58:38.667Z,2.26
2022-12-23T02:01:26.934Z,2.24
2022-12-23T02:03:59.728Z,2.22
2022-12-23T02:06:52.227Z,2.24
2022-12-23T02:09:24.689Z,2.22
2022-12-23T02:12:21.691Z,2.23
2022-12-23T02:15:11.772Z,2.26
2022-12-23T02:18:05.738Z,2.31
2022-12-23T02:21:03.437Z,2.35
2022-12-23T02:24:16.309Z,2.33
2022-12-23T02:26:53.357Z,2.28
2022-12-23T02:29:40.184Z,2.19
2022-12-23T02:32:23.587Z,2.16
2022-12-23T02:35:27.860Z,2.13
2022-12-23T02:38:01.318Z,2.09
2022-12-23T02:40:58.204Z,2.04
2022-12-23T02:43:48.102Z,1.98
2022-12-23T02:46:30.971Z,1.91
2022-12-23T02:48:59.140Z,1.82
2022-12-23T02:51:32.960Z,1.77
2022-12-23T02:54:05.731Z,1.73
2022-12-23T02:56:37.362Z,1.69
2022-12-23T02:59:16.391Z,1.65
2022-12-23T03:01:46.024Z,1.59
2022-12-23T03:04:15.091Z,1.56
2022-12-23T03:06:50.237Z,1.51
2022-12-23T03:09:37.354Z,1.47
2022-12-23T03:12:40.795Z,1.45
2022-12-23T03:15:17.889Z,1.44
2022-12-23T03:18:21.812Z,1.45
2022-12-23T03:21:18.263Z,1.47
2022-12-23T03:23:55.979Z,1.46
2022-12-23T03:26:38.221Z,1.44
2022-12-23T03:29:19.734Z,1.44
2022-12-23T03:31:49.927Z,1.41
2022-12-23T03:34:25.297Z,1.38
2022-12-23T03:36:58.119Z,1.36
2022-12-23T03:39:32.483Z,1.34
2022-12-23T03:42:13.904Z,1.29
2022-12-23T03:45:10.797Z,1.21
2022-12-23T03:47:45.603Z,1.11
2022-12-23T03:50:17.165Z,1.00
2022-12-23T03:53:12.378Z,0.92
2022-12-23T03:55:54.336Z,0.88
2022-12-23T03:58:29.217Z,0.84
2022-12-23T04:01:08.293Z,0.83
2022-12-23T04:03:42.162Z,0.83
2022-12-23T04:06:14.645Z,0.84
2022-12-23T04:08:45.017Z,0.85
2022-12-23T04:11:14.138Z,0.87
2022-12-23T04:13:42.470Z,0.90
2022-12-23T04:16:11.035Z,0.94
2022-12-23T04:18:39.083Z,1.00
2022-12-23T04:21:07.328Z,1.07
2022-12-23T04:23:35.411Z,1.15
2022-12-23T04:26:03.494Z,1.23
2022-12-23T04:28:31.580Z,1.31
2022-12-23T04:30:59.996Z,1.40
2022-12-23T04:33:28.362Z,1.50
2022-12-23T04:35:56.472Z,1.55
2022-12-23T04:38:24.661Z,1.61
2022-12-23T04:40:52.695Z,1.66
2022-12-23T04:43:20.893Z,1.69
2022-12-23T04:45:52.921Z,1.71
2022-12-23T04:48:21.232Z,1.72
2022-12-23T04:50:49.432Z,1.73
2022-12-23T04:53:17.465Z,1.71
2022-12-23T04:55:51.291Z,1.69
2022-12-23T04:58:22.365Z,1.68
2022-12-23T05:00:50.794Z,1.67
2022-12-23T05:03:19.089Z,1.66
2022-12-23T05:05:47.359Z,1.64
2022-12-23T05:08:15.386Z,1.62
2022-12-23T05:10:45.733Z,1.60
2022-12-23T05:13:13.838Z,1.60
2022-12-23T05:15:45.436Z,1.62
2022-12-23T05:18:13.394Z,1.65
2022-12-23T05:20:41.504Z,1.68
2022-12-23T05:23:09.884Z,1.71
2022-12-23T05:25:39.537Z,1.75
2022-12-23T05:28:08.261Z,1.80
2022-12-23T05:30:36.758Z,1.84
2022-12-23T05:33:04.890Z,1.90
2022-12-23T05:35:33.117Z,1.94
2022-12-23T05:38:03.367Z,1.96
2022-12-23T05:40:33.187Z,1.97
2022-12-23T05:43:02.504Z,1.94
2022-12-23T05:45:30.853Z,1.93
2022-12-23T05:47:59.207Z,1.95
2022-12-23T05:50:27.450Z,1.92
2022-12-23T05:52:58.400Z,1.84
2022-12-23T05:55:27.356Z,1.78
2022-12-23T05:57:55.564Z,1.76
2022-12-23T06:00:24.152Z,1.75
2022-12-23T06:02:54.168Z,1.75
2022-12-23T06:05:22.915Z,1.75
2022-12-23T06:07:51.240Z,1.74
2022-12-23T06:10:19.840Z,1.74
2022-12-23T06:12:47.982Z,1.75
2022-12-23T06:15:16.503Z,1.77
2022-12-23T06:17:44.653Z,1.79
2022-12-23T06:20:20.018Z,1.82
2022-12-23T06:22:49.040Z,1.83
2022-12-23T06:25:17.151Z,1.83
2022-12-23T06:27:45.360Z,1.82
2022-12-23T06:30:14.508Z,1.81
2022-12-23T06:32:42.849Z,1.83
2022-12-23T06:35:10.965Z,1.85
2022-12-23T06:37:39.009Z,1.82
2022-12-23T06:40:07.557Z,1.77
2022-12-23T06:42:35.808Z,1.72
2022-12-23T06:45:04.342Z,1.69
2022-12-23T06:47:32.530Z,1.68
2022-12-23T06:50:00.599Z,1.66
2022-12-23T06:52:28.946Z,1.65
2022-12-23T06:54:57.327Z,1.61
2022-12-23T06:57:28.916Z,1.54
2022-12-23T06:59:57.928Z,1.48
2022-12-23T07:02:26.271Z,1.43
2022-12-23T07:04:54.532Z,1.39
2022-12-23T07:07:22.681Z,1.36
2022-12-23T07:09:50.701Z,1.37
2022-12-23T07:12:19.617Z,1.37
2022-12-23T07:14:47.777Z,1.36
2022-12-23T07:17:15.995Z,1.38
2022-12-23T07:19:44.304Z,1.43
2022-12-23T07:22:12.480Z,1.47
2022-12-23T07:24:40.714Z,1.52
2022-12-23T07:27:09.700Z,1.60
2022-12-23T07:29:37.649Z,1.69
2022-12-23T07:32:05.921Z,1.71
2022-12-23T07:34:34.374Z,1.72
2022-12-23T07:37:02.673Z,1.71
2022-12-23T07:39:30.931Z,1.63
2022-12-23T07:42:25.078Z,1.59
2022-12-23T07:44:47.719Z,1.58
2022-12-23T07:47:16.024Z,1.57
2022-12-23T07:49:44.405Z,1.59
2022-12-23T07:52:12.909Z,1.59
2022-12-23T07:54:43.543Z,1.62
2022-12-23T07:57:15.551Z,1.67
2022-12-23T07:59:43.919Z,1.70
2022-12-23T08:02:12.519Z,1.71
2022-12-23T08:04:46.113Z,1.79
2022-12-23T08:07:15.246Z,1.90
2022-12-23T08:09:43.718Z,2.00
2022-12-23T08:12:12.306Z,2.04
2022-12-23T08:14:40.546Z,2.07
2022-12-23T08:17:09.706Z,2.15
2022-12-23T08:19:38.396Z,2.25
2022-12-23T08:22:07.210Z,2.36
2022-12-23T08:24:35.409Z,2.45
2022-12-23T08:27:03.815Z,2.52
2022-12-23T08:29:36.267Z,2.49
2022-12-23T08:32:05.718Z,2.46
2022-12-23T08:34:34.384Z,2.48
2022-12-23T08:37:03.585Z,2.57
2022-12-23T08:39:32.147Z,2.63
2022-12-23T08:42:00.752Z,2.70
2022-12-23T08:44:29.926Z,2.80
2022-12-23T08:46:58.485Z,2.85
2022-12-23T08:49:27.079Z,2.98
2022-12-23T08:51:55.373Z,3.15
2022-12-23T08:54:25.326Z,3.32
2022-12-23T08:56:53.776Z,3.50
2022-12-23T08:59:21.840Z,3.73
2022-12-23T09:01:50.429Z,3.95
2022-12-23T09:04:18.914Z,4.16
2022-12-23T09:06:47.051Z,4.25
2022-12-23T09:09:16.409Z,4.24
2022-12-23T09:11:44.865Z,4.23
2022-12-23T09:14:13.048Z,4.28
2022-12-23T09:16:41.364Z,4.33
2022-12-23T09:19:09.943Z,4.42
2022-12-23T09:21:38.172Z,4.50
2022-12-23T09:24:06.678Z,4.64
2022-12-23T09:26:34.897Z,4.77
2022-12-23T09:29:03.046Z,4.78
2022-12-23T09:31:36.600Z,4.71
2022-12-23T09:34:06.183Z,4.71
2022-12-23T09:36:35.006Z,4.74
2022-12-23T09:39:04.128Z,4.72
2022-12-23T09:41:42.981Z,4.68
2022-12-23T09:44:45.872Z,4.67
2022-12-23T09:47:22.239Z,4.68
2022-12-23T09:49:56.913Z,4.60
2022-12-23T09:53:17.775Z,4.54
2022-12-23T09:55:55.284Z,4.50
2022-12-23T09:58:36.663Z,4.51
2022-12-23T10:01:20.065Z,4.56
2022-12-23T10:03:52.766Z,4.61
2022-12-23T10:06:27.924Z,4.65
2022-12-23T10:09:02.791Z,4.76
2022-12-23T10:11:47.251Z,4.91
2022-12-23T10:14:21.125Z,4.95
2022-12-23T10:16:58.069Z,5.01
2022-12-23T10:19:28.984Z,5.03
2022-12-23T10:22:10.630Z,4.99
2022-12-23T10:24:42.031Z,4.95
2022-12-23T10:27:22.346Z,4.92
2022-12-23T10:29:50.570Z,4.95
2022-12-23T10:32:31.467Z,4.96
2022-12-23T10:35:35.761Z,4.98
2022-12-23T10:38:19.972Z,4.94
2022-12-23T10:41:32.982Z,4.89
2022-12-23T10:44:22.975Z,4.87
2022-12-23T10:47:16.708Z,4.85
2022-12-23T10:50:14.487Z,4.87
2022-12-23T10:52:45.607Z,4.94
2022-12-23T10:55:36.298Z,5.02
2022-12-23T10:58:15.719Z,5.05
2022-12-23T11:00:53.796Z,5.10
2022-12-23T11:03:26.579Z,5.12
2022-12-23T11:05:57.606Z,5.11
2022-12-23T11:08:29.578Z,5.13
2022-12-23T11:11:01.169Z,5.12
2022-12-23T11:13:32.524Z,5.06
2022-12-23T11:16:21.856Z,5.05
2022-12-23T11:18:55.016Z,5.11
2022-12-23T11:21:23.721Z,5.16
2022-12-23T11:24:18.301Z,5.10
2022-12-23T11:26:51.778Z,5.12
2022-12-23T11:29:36.938Z,5.21
2022-12-23T11:32:17.806Z,5.22
2022-12-23T11:34:48.393Z,5.21
2022-12-23T11:37:40.934Z,5.19
2022-12-23T11:40:25.437Z,5.19
2022-12-23T11:43:03.508Z,5.25
2022-12-23T11:45:38.003Z,5.30
2022-12-23T11:48:26.231Z,5.39
2022-12-23T11:51:04.013Z,5.42
2022-12-23T11:53:32.833Z,5.40
2022-12-23T11:56:04.794Z,5.43
2022-12-23T11:58:59.837Z,5.39
2022-12-23T12:01:29.024Z,5.41
2022-12-23T12:04:03.984Z,5.37
2022-12-23T12:06:34.042Z,5.33
2022-12-23T12:09:05.709Z,5.29
2022-12-23T12:11:48.309Z,5.26
2022-12-23T12:14:23.310Z,5.28
2022-12-23T12:17:00.881Z,5.33
2022-12-23T12:19:36.117Z,5.37
2022-12-23T12:22:15.003Z,5.39
2022-12-23T12:24:50.805Z,5.41
2022-12-23T12:27:22.900Z,5.46
2022-12-23T12:29:56.261Z,5.49
2022-12-23T12:32:41.245Z,5.52
2022-12-23T12:35:22.304Z,5.50
2022-12-23T12:38:01.910Z,5.50
2022-12-23T12:40:41.231Z,5.49
2022-12-23T12:43:32.825Z,5.48
2022-12-23T12:46:33.279Z,5.51
2022-12-23T12:49:05.018Z,5.55
2022-12-23T12:51:46.942Z,5.55
2022-12-23T12:54:30.542Z,5.54
2022-12-23T12:56:59.948Z,5.52
2022-12-23T12:59:39.274Z,5.49
2022-12-23T13:02:42.600Z,5.46
2022-12-23T13:05:30.270Z,5.38
2022-12-23T13:08:21.967Z,5.36
2022-12-23T13:10:56.660Z,5.37
2022-12-23T13:14:02.274Z,5.39
2022-12-23T13:16:44.152Z,5.39
2022-12-23T13:19:44.655Z,5.37
2022-12-23T13:22:17.748Z,5.32
2022-12-23T13:25:22.596Z,5.27
2022-12-23T13:28:12.085Z,5.26
2022-12-23T13:30:48.585Z,5.28
2022-12-23T13:33:21.253Z,5.30
2022-12-23T13:36:14.628Z,5.28
2022-12-23T13:39:18.802Z,5.27
2022-12-23T13:41:53.701Z,5.19
2022-12-23T13:44:23.133Z,5.15
2022-12-23T13:47:06.755Z,5.11
2022-12-23T13:49:53.352Z,5.10
2022-12-23T13:52:56.932Z,5.06
2022-12-23T13:55:36.616Z,5.05
2022-12-23T13:58:13.565Z,5.04
2022-12-23T14:00:42.433Z,5.05
2022-12-23T14:03:12.800Z,5.07
2022-12-23T14:05:45.336Z,5.07
2022-12-23T14:08:19.586Z,5.08
2022-12-23T14:11:00.380Z,5.05
2022-12-23T14:13:42.327Z,5.02
2022-12-23T14:16:37.813Z,4.98
2022-12-23T14:19:51.940Z,4.93
2022-12-23T14:22:53.886Z,4.92
2022-12-23T14:25:47.483Z,4.91
2022-12-23T14:28:44.059Z,4.87
2022-12-23T14:31:34.671Z,4.85
2022-12-23T14:34:06.554Z,4.83
2022-12-23T14:36:35.271Z,4.79
2022-12-23T14:39:12.718Z,4.73
2022-12-23T14:41:53.662Z,4.64
2022-12-23T14:44:37.324Z,4.53
2022-12-23T14:47:25.880Z,4.42
2022-12-23T14:49:54.585Z,4.33
2022-12-23T14:52:38.068Z,4.28
2022-12-23T14:55:31.693Z,4.23
2022-12-23T14:58:15.323Z,4.17
2022-12-23T15:00:50.879Z,4.12
2022-12-23T15:03:20.772Z,4.08
2022-12-23T15:05:51.216Z,4.03
2022-12-23T15:08:31.236Z,3.94
2022-12-23T15:10:59.867Z,3.83
2022-12-23T15:13:30.363Z,3.73
2022-12-23T15:16:01.686Z,3.62
2022-12-23T15:18:30.346Z,3.53
2022-12-23T15:21:04.075Z,3.47
2022-12-23T15:23:33.379Z,3.43
2022-12-23T15:26:02.653Z,3.40
2022-12-23T15:28:39.511Z,3.38
2022-12-23T15:31:25.657Z,3.36
2022-12-23T15:34:04.125Z,3.35
2022-12-23T15:36:37.772Z,3.34
2022-12-23T15:39:18.914Z,3.31
2022-12-23T15:41:48.690Z,3.27
2022-12-23T15:44:23.338Z,3.25
2022-12-23T15:46:52.292Z,3.22
2022-12-23T15:49:21.962Z,3.18
2022-12-23T15:52:07.843Z,3.12
2022-12-23T15:54:45.170Z,3.03
2022-12-23T15:57:19.842Z,2.95
2022-12-23T15:59:48.928Z,2.86
2022-12-23T16:05:30.575Z,2.72
2022-12-23T16:08:30.470Z,2.68
2022-12-23T16:11:16.157Z,2.63
2022-12-23T16:13:59.193Z,2.59
2022-12-23T16:16:34.195Z,2.57
2022-12-23T16:19:02.694Z,2.55
2022-12-23T16:21:34.732Z,2.51
2022-12-23T16:24:08.495Z,2.48
2022-12-23T16:26:42.751Z,2.47
2022-12-23T16:29:13.070Z,2.43
2022-12-23T16:31:47.864Z,2.42
2022-12-23T16:34:19.997Z,2.42
2022-12-23T16:36:48.164Z,2.42
2022-12-23T16:39:22.627Z,2.42
2022-12-23T16:41:51.222Z,2.42
2022-12-23T16:44:19.240Z,2.41
2022-12-23T16:46:49.697Z,2.37
2022-12-23T16:49:20.735Z,2.36
2022-12-23T16:51:49.416Z,2.35
2022-12-23T16:54:20.258Z,2.35
2022-12-23T16:56:51.600Z,2.33
2022-12-23T16:59:22.903Z,2.31
2022-12-23T17:01:53.674Z,2.32
2022-12-23T17:04:24.070Z,2.35
2022-12-23T17:06:52.329Z,2.41
2022-12-23T17:09:21.163Z,2.47
2022-12-23T17:11:53.184Z,2.51
2022-12-23T17:14:24.865Z,2.55
2022-12-23T17:16:53.738Z,2.64
2022-12-23T17:19:28.677Z,2.71
2022-12-23T17:22:02.201Z,2.78
2022-12-23T17:24:30.573Z,2.82
2022-12-23T17:26:59.075Z,2.84
2022-12-23T17:29:28.407Z,2.85
2022-12-23T17:31:56.642Z,2.85
2022-12-23T17:34:25.003Z,2.87
2022-12-23T17:36:53.589Z,2.85
2022-12-23T17:39:22.852Z,2.81
2022-12-23T17:41:51.908Z,2.77
2022-12-23T17:44:20.187Z,2.73
2022-12-23T17:46:48.615Z,2.70
2022-12-23T17:49:17.403Z,2.67
2022-12-23T17:51:45.950Z,2.65
2022-12-23T17:54:25.125Z,2.65
2022-12-23T17:56:53.888Z,2.66
2022-12-23T17:59:22.064Z,2.69
2022-12-23T18:01:50.512Z,2.72
2022-12-23T18:04:18.880Z,2.76
2022-12-23T18:06:47.166Z,2.81
2022-12-23T18:09:15.298Z,2.84
2022-12-23T18:11:45.931Z,2.85
2022-12-23T18:14:24.005Z,2.87
2022-12-23T18:16:52.512Z,2.89
2022-12-23T18:19:21.896Z,2.87
2022-12-23T18:21:51.690Z,2.86
2022-12-23T18:24:19.840Z,2.86
2022-12-23T18:26:48.171Z,2.86
2022-12-23T18:29:16.439Z,2.84
2022-12-23T18:31:51.428Z,2.82
2022-12-23T18:34:21.136Z,2.79
2022-12-23T18:36:52.076Z,2.76
2022-12-23T18:39:21.313Z,2.74
2022-12-23T18:41:49.555Z,2.73
2022-12-23T18:44:21.828Z,2.74
2022-12-23T18:46:50.790Z,2.74
2022-12-23T18:49:19.600Z,2.65
2022-12-23T18:51:48.035Z,2.56
2022-12-23T18:54:16.993Z,2.52
2022-12-23T18:56:45.646Z,2.48
2022-12-23T18:59:24.316Z,2.48
2022-12-23T19:01:58.325Z,2.52
2022-12-23T19:04:27.934Z,2.56
2022-12-23T19:06:57.736Z,2.60
2022-12-23T19:09:26.508Z,2.64
2022-12-23T19:11:54.901Z,2.72
2022-12-23T19:14:23.395Z,2.83
2022-12-23T19:16:52.700Z,2.93
2022-12-23T19:19:22.183Z,2.96
2022-12-23T19:21:50.427Z,2.97
2022-12-23T19:24:18.534Z,2.99
2022-12-23T19:26:47.071Z,3.01
2022-12-23T19:29:15.437Z,3.04
2022-12-23T19:31:43.625Z,3.07
2022-12-23T19:34:15.355Z,3.08
2022-12-23T19:36:44.705Z,3.10
2022-12-23T19:39:16.989Z,3.11
2022-12-23T19:41:45.778Z,3.14
2022-12-23T19:44:14.886Z,3.18
2022-12-23T19:46:43.449Z,3.22
2022-12-23T19:49:19.177Z,3.25
2022-12-23T19:51:49.518Z,3.27
2022-12-23T19:54:19.308Z,3.31
2022-12-23T19:56:51.406Z,3.35
2022-12-23T19:59:20.165Z,3.39
2022-12-23T20:01:49.060Z,3.43
2022-12-23T20:04:17.721Z,3.47
2022-12-23T20:06:46.270Z,3.49
2022-12-23T20:09:14.368Z,3.49
2022-12-23T20:11:45.653Z,3.48
2022-12-23T20:14:15.952Z,3.49
2022-12-23T20:16:44.563Z,3.48
2022-12-23T20:19:12.819Z,3.48
2022-12-23T20:21:41.007Z,3.49
2022-12-23T20:24:09.739Z,3.47
2022-12-23T20:26:39.365Z,3.43
2022-12-23T20:29:08.651Z,3.42
2022-12-23T20:31:38.677Z,3.45
2022-12-23T20:34:10.790Z,3.51
2022-12-23T20:36:39.158Z,3.56
2022-12-23T20:39:07.818Z,3.61
2022-12-23T20:41:36.055Z,3.66
2022-12-23T20:46:52.677Z,3.73
2022-12-23T20:49:21.079Z,3.73
2022-12-23T20:51:49.448Z,3.77
2022-12-23T20:54:17.939Z,3.84
2022-12-23T20:56:46.552Z,3.89
2022-12-23T20:59:14.857Z,3.94
2022-12-23T21:01:43.409Z,3.98
2022-12-23T21:04:18.373Z,3.98
2022-12-23T21:06:46.531Z,3.97
2022-12-23T21:09:15.615Z,3.96
2022-12-23T21:11:45.920Z,3.95
2022-12-23T21:14:15.478Z,3.91
2022-12-23T21:16:44.070Z,3.89
2022-12-23T21:19:21.698Z,3.90
2022-12-23T21:21:51.369Z,3.92
2022-12-23T21:24:20.977Z,3.94
2022-12-23T21:26:56.574Z,3.95
2022-12-23T21:29:25.948Z,3.96
2022-12-23T21:31:55.523Z,3.99
2022-12-23T21:34:24.180Z,4.00
2022-12-23T21:36:52.555Z,4.00
2022-12-23T21:39:20.968Z,3.98
2022-12-23T21:41:51.709Z,3.90
2022-12-23T21:44:20.015Z,3.83
2022-12-23T21:46:50.941Z,3.75
2022-12-23T21:49:21.408Z,3.69
2022-12-23T21:51:49.583Z,3.66
2022-12-23T21:54:17.683Z,3.62
2022-12-23T21:56:45.763Z,3.56
2022-12-23T21:59:15.033Z,3.51
2022-12-23T22:01:43.761Z,3.47
2022-12-23T22:04:11.935Z,3.43
2022-12-23T22:06:46.266Z,3.38
2022-12-23T22:09:19.000Z,3.36
2022-12-23T22:11:48.627Z,3.34
2022-12-23T22:14:19.802Z,3.33
2022-12-23T22:16:48.061Z,3.35
2022-12-23T22:19:16.418Z,3.40
2022-12-23T22:21:44.934Z,3.46
2022-12-23T22:24:13.196Z,3.52
2022-12-23T22:26:41.923Z,3.60
2022-12-23T22:29:10.793Z,3.65
2022-12-23T22:31:47.471Z,3.63
2022-12-23T22:34:19.192Z,3.59
2022-12-23T22:36:48.205Z,3.56
2022-12-23T22:39:21.086Z,3.52
2022-12-23T22:41:51.483Z,3.51
2022-12-23T22:44:20.983Z,3.48
2022-12-23T22:46:49.165Z,3.44
2022-12-23T22:49:17.578Z,3.40
2022-12-23T22:51:45.715Z,3.36
2022-12-23T22:54:14.343Z,3.34
2022-12-23T22:56:42.718Z,3.32
2022-12-23T22:59:19.480Z,3.29
2022-12-23T23:01:48.993Z,3.28
2022-12-23T23:04:17.567Z,3.26
2022-12-23T23:06:45.619Z,3.27
2022-12-23T23:09:18.320Z,3.26
2022-12-23T23:11:46.455Z,3.26
2022-12-23T23:14:14.960Z,3.25
2022-12-23T23:16:43.127Z,3.16
2022-12-23T23:19:12.093Z,3.14
2022-12-23T23:21:40.108Z,3.10
2022-12-23T23:24:08.650Z,3.04
2022-12-23T23:26:36.521Z,3.02
2022-12-23T23:29:04.960Z,3.00
2022-12-23T23:31:42.286Z,2.99
2022-12-23T23:34:12.066Z,2.98
2022-12-23T23:36:40.775Z,2.96
2022-12-23T23:39:11.335Z,2.95
2022-12-23T23:41:41.066Z,2.95
2022-12-23T23:44:09.375Z,2.95
2022-12-23T23:46:38.650Z,2.97
2022-12-23T23:49:06.742Z,2.99
2022-12-23T23:51:35.071Z,3.02
2022-12-23T23:54:03.703Z,3.06
2022-12-23T23:56:37.834Z,3.08
2022-12-23T23:59:09.083Z,3.08
